createdAt,value
2022-09-01T00:00:15.292Z,21.84
2022-09-01T00:02:44.092Z,21.84
2022-09-01T00:05:13.091Z,21.98
2022-09-01T00:07:40.494Z,21.96
2022-09-01T00:10:08.996Z,21.82
2022-09-01T00:12:37.858Z,21.68
2022-09-01T00:15:07.244Z,21.72
2022-09-01T00:17:34.832Z,21.82
2022-09-01T00:20:02.352Z,21.86
2022-09-01T00:22:30.013Z,21.83
2022-09-01T00:24:57.348Z,21.75
2022-09-01T00:27:27.928Z,21.99
2022-09-01T00:29:59.272Z,21.93
2022-09-01T00:32:27.788Z,21.74
2022-09-01T00:34:55.132Z,21.83
2022-09-01T00:37:22.439Z,21.87
2022-09-01T00:39:49.694Z,21.67
2022-09-01T00:42:17.265Z,21.55
2022-09-01T00:44:44.654Z,21.48
2022-09-01T00:47:14.849Z,21.57
2022-09-01T00:49:45.737Z,21.43
2022-09-01T00:52:16.064Z,21.34
2022-09-01T00:54:51.135Z,21.35
2022-09-01T00:57:18.772Z,21.47
2022-09-01T01:00:06.891Z,21.46
2022-09-01T01:02:34.273Z,21.37
2022-09-01T01:05:03.073Z,21.49
2022-09-01T01:07:30.429Z,21.47
2022-09-01T01:09:57.987Z,21.33
2022-09-01T01:12:28.205Z,21.33
2022-09-01T01:14:57.304Z,21.38
2022-09-01T01:17:25.703Z,21.19
2022-09-01T01:20:17.021Z,21.41
2022-09-01T01:23:02.504Z,21.22
2022-09-01T01:25:34.014Z,21.20
2022-09-01T01:28:18.750Z,21.22
2022-09-01T01:31:01.825Z,21.22
2022-09-01T01:33:35.445Z,21.10
2022-09-01T01:36:03.887Z,21.10
2022-09-01T01:38:31.879Z,21.09
2022-09-01T01:41:00.293Z,21.11
2022-09-01T01:43:29.280Z,21.18
2022-09-01T01:46:02.962Z,21.14
2022-09-01T01:48:41.334Z,21.22
2022-09-01T01:51:10.798Z,21.29
2022-09-01T01:53:39.208Z,21.27
2022-09-01T01:56:09.254Z,21.25
2022-09-01T01:58:37.509Z,21.16
2022-09-01T02:01:12.994Z,21.30
2022-09-01T02:03:41.127Z,21.23
2022-09-01T02:06:12.291Z,21.17
2022-09-01T02:08:42.406Z,20.95
2022-09-01T02:11:10.052Z,21.21
2022-09-01T02:13:37.406Z,21.11
2022-09-01T02:16:13.300Z,21.09
2022-09-01T02:18:48.359Z,21.10
2022-09-01T02:21:22.131Z,21.07
2022-09-01T02:24:02.535Z,21.35
2022-09-01T02:26:39.899Z,21.45
2022-09-01T02:29:18.235Z,21.29
2022-09-01T02:31:48.369Z,21.16
2022-09-01T02:34:17.344Z,21.13
2022-09-01T02:36:49.468Z,21.17
2022-09-01T02:39:26.766Z,21.24
2022-09-01T02:41:54.900Z,21.21
2022-09-01T02:44:28.080Z,21.13
2022-09-01T02:46:56.281Z,21.08
2022-09-01T02:49:28.447Z,21.03
2022-09-01T02:51:59.785Z,20.91
2022-09-01T02:54:28.975Z,20.89
2022-09-01T02:56:56.871Z,20.92
2022-09-01T02:59:29.044Z,20.97
2022-09-01T03:02:01.306Z,20.98
2022-09-01T03:04:35.322Z,20.90
2022-09-01T03:07:07.416Z,20.75
2022-09-01T03:09:35.682Z,20.71
2022-09-01T03:12:04.159Z,20.70
2022-09-01T03:14:32.371Z,20.63
2022-09-01T03:17:01.128Z,20.62
2022-09-01T03:19:32.830Z,20.50
2022-09-01T03:22:13.498Z,20.41
2022-09-01T03:24:44.768Z,20.33
2022-09-01T03:27:12.254Z,20.23
2022-09-01T03:29:41.089Z,20.24
2022-09-01T03:32:09.532Z,20.30
2022-09-01T03:34:39.785Z,20.31
2022-09-01T03:37:10.000Z,20.38
2022-09-01T03:39:38.892Z,20.33
2022-09-01T03:42:09.433Z,20.48
2022-09-01T03:44:42.969Z,20.34
2022-09-01T03:47:15.569Z,20.62
2022-09-01T03:49:45.714Z,20.61
2022-09-01T03:52:13.682Z,20.70
2022-09-01T03:54:41.106Z,20.82
2022-09-01T03:57:10.290Z,20.98
2022-09-01T03:59:45.485Z,21.01
2022-09-01T04:02:13.414Z,21.08
2022-09-01T04:04:40.935Z,21.09
2022-09-01T04:07:08.322Z,20.97
2022-09-01T04:09:37.450Z,21.17
2022-09-01T04:12:08.383Z,21.11
2022-09-01T04:14:44.841Z,21.27
2022-09-01T04:17:30.739Z,21.21
2022-09-01T04:19:58.523Z,21.12
2022-09-01T04:22:31.351Z,21.14
2022-09-01T04:25:02.421Z,21.12
2022-09-01T04:27:30.097Z,21.16
2022-09-01T04:29:57.887Z,21.16
2022-09-01T04:32:33.766Z,21.07
2022-09-01T04:35:05.543Z,20.74
2022-09-01T04:37:33.136Z,20.75
2022-09-01T04:40:03.970Z,20.91
2022-09-01T04:42:32.838Z,20.81
2022-09-01T04:45:10.761Z,20.83
2022-09-01T04:47:45.686Z,21.04
2022-09-01T04:50:19.563Z,20.98
2022-09-01T04:53:07.235Z,21.12
2022-09-01T04:55:49.842Z,21.22
2022-09-01T04:58:20.939Z,21.25
2022-09-01T05:00:52.566Z,21.05
2022-09-01T05:03:24.784Z,20.93
2022-09-01T05:06:01.433Z,21.09
2022-09-01T05:08:29.372Z,21.01
2022-09-01T05:11:09.947Z,21.05
2022-09-01T05:13:39.907Z,21.34
2022-09-01T05:16:13.519Z,21.27
2022-09-01T05:18:49.151Z,21.22
2022-09-01T05:21:22.504Z,21.52
2022-09-01T05:23:52.054Z,21.59
2022-09-01T05:26:27.142Z,21.46
2022-09-01T05:29:00.172Z,21.49
2022-09-01T05:31:35.252Z,21.61
2022-09-01T05:34:05.053Z,22.02
2022-09-01T05:36:33.942Z,22.35
2022-09-01T05:39:05.655Z,22.30
2022-09-01T05:41:36.052Z,22.34
2022-09-01T05:44:07.327Z,22.50
2022-09-01T05:46:38.004Z,22.79
2022-09-01T05:49:08.647Z,22.99
2022-09-01T05:51:45.618Z,22.57
2022-09-01T05:54:15.047Z,22.51
2022-09-01T05:56:44.894Z,22.48
2022-09-01T05:59:24.927Z,22.58
2022-09-01T06:02:00.788Z,22.91
2022-09-01T06:04:31.427Z,23.00
2022-09-01T06:07:10.250Z,23.08
2022-09-01T06:09:48.782Z,22.89
2022-09-01T06:12:24.116Z,22.90
2022-09-01T06:14:54.316Z,23.12
2022-09-01T06:17:25.536Z,23.24
2022-09-01T06:19:56.494Z,23.47
2022-09-01T06:22:26.708Z,23.63
2022-09-01T06:24:59.452Z,23.83
2022-09-01T06:27:34.446Z,23.89
2022-09-01T06:30:03.263Z,24.21
2022-09-01T06:32:39.114Z,24.25
2022-09-01T06:35:09.445Z,24.56
2022-09-01T06:37:40.920Z,24.85
2022-09-01T06:40:17.463Z,24.93
2022-09-01T06:42:51.241Z,24.82
2022-09-01T06:45:21.612Z,24.72
2022-09-01T06:47:51.364Z,25.04
2022-09-01T06:53:39.264Z,25.39
2022-09-01T06:56:15.290Z,25.68
2022-09-01T06:58:47.794Z,25.57
2022-09-01T07:01:19.843Z,25.72
2022-09-01T07:03:54.065Z,25.72
2022-09-01T07:09:46.264Z,25.99
2022-09-01T07:16:32.089Z,26.65
2022-09-01T07:18:25.923Z,26.73
2022-09-01T07:24:08.058Z,26.93
2022-09-01T07:26:45.387Z,27.50
2022-09-01T07:29:15.452Z,27.66
2022-09-01T07:32:41.193Z,27.69
2022-09-01T07:34:40.135Z,27.88
2022-09-01T07:45:58.827Z,27.63
2022-09-01T07:51:37.242Z,28.04
2022-09-01T07:54:06.954Z,28.04
2022-09-01T07:56:39.491Z,28.12
2022-09-01T07:59:14.561Z,28.05
2022-09-01T08:02:17.914Z,28.32
2022-09-01T08:04:47.636Z,28.70
2022-09-01T08:07:16.592Z,28.74
2022-09-01T08:09:44.849Z,29.11
2022-09-01T08:12:14.376Z,29.13
2022-09-01T08:16:06.782Z,28.86
2022-09-01T08:17:52.100Z,28.44
2022-09-01T08:20:22.270Z,28.33
2022-09-01T08:22:57.212Z,28.70
2022-09-01T08:25:32.952Z,29.17
2022-09-01T08:28:02.616Z,29.52
2022-09-01T08:30:32.882Z,29.72
2022-09-01T08:33:10.233Z,29.91
2022-09-01T08:35:40.905Z,30.04
2022-09-01T08:38:09.586Z,30.70
2022-09-01T08:40:38.415Z,30.47
2022-09-01T08:43:41.067Z,30.65
2022-09-01T08:46:35.313Z,30.46
2022-09-01T08:49:26.630Z,30.43
2022-09-01T08:52:45.020Z,30.27
2022-09-01T08:55:26.252Z,30.57
2022-09-01T08:57:59.921Z,29.98
2022-09-01T09:00:30.699Z,30.39
2022-09-01T09:03:40.504Z,30.30
2022-09-01T09:06:17.278Z,30.93
2022-09-01T09:08:58.919Z,30.83
2022-09-01T09:12:04.475Z,30.13
2022-09-01T09:14:53.160Z,30.27
2022-09-01T09:17:28.210Z,30.32
2022-09-01T09:19:56.827Z,30.70
2022-09-01T09:22:24.135Z,30.77
2022-09-01T09:25:10.193Z,31.35
2022-09-01T09:27:39.302Z,31.05
2022-09-01T09:30:13.628Z,30.80
2022-09-01T09:35:46.198Z,30.63
2022-09-01T09:38:21.768Z,31.66
2022-09-01T09:41:16.445Z,32.03
2022-09-01T09:44:20.508Z,32.48
2022-09-01T09:46:50.552Z,32.65
2022-09-01T09:49:42.214Z,33.29
2022-09-01T09:52:19.446Z,33.53
2022-09-01T09:55:22.713Z,34.06
2022-09-01T09:57:59.288Z,33.60
2022-09-01T10:00:39.324Z,34.88
2022-09-01T10:03:15.826Z,33.40
2022-09-01T10:05:46.111Z,34.60
2022-09-01T10:08:37.883Z,32.52
2022-09-01T10:11:08.312Z,32.65
2022-09-01T10:13:37.023Z,32.62
2022-09-01T10:16:32.493Z,31.56
2022-09-01T10:19:02.716Z,30.67
2022-09-01T10:21:35.893Z,31.94
2022-09-01T10:24:44.690Z,31.92
2022-09-01T10:27:35.896Z,32.54
2022-09-01T10:30:21.263Z,32.59
2022-09-01T10:32:55.242Z,31.53
2022-09-01T10:35:34.419Z,31.54
2022-09-01T10:38:08.309Z,32.11
2022-09-01T10:40:50.119Z,33.55
2022-09-01T10:43:41.948Z,33.02
2022-09-01T10:46:25.924Z,32.65
2022-09-01T10:49:04.395Z,32.18
2022-09-01T10:54:45.243Z,32.43
2022-09-01T10:57:26.788Z,32.01
2022-09-01T11:06:12.633Z,34.95
2022-09-01T11:08:50.997Z,33.92
2022-09-01T11:11:48.016Z,34.14
2022-09-01T11:14:23.109Z,34.55
2022-09-01T11:17:14.581Z,32.67
2022-09-01T11:20:06.485Z,32.26
2022-09-01T11:22:41.217Z,33.12
2022-09-01T11:25:41.511Z,32.73
2022-09-01T11:28:31.869Z,32.76
2022-09-01T11:31:09.003Z,33.02
2022-09-01T11:34:02.078Z,34.86
2022-09-01T11:36:38.044Z,33.46
2022-09-01T11:39:07.562Z,33.62
2022-09-01T11:41:59.692Z,33.75
2022-09-01T11:44:55.287Z,33.80
2022-09-01T11:47:27.571Z,33.14
2022-09-01T11:49:59.837Z,32.79
2022-09-01T11:52:32.421Z,33.57
2022-09-01T11:55:00.248Z,33.91
2022-09-01T11:57:30.694Z,33.58
2022-09-01T12:00:00.419Z,33.80
2022-09-01T12:02:33.861Z,33.80
2022-09-01T12:05:25.888Z,34.25
2022-09-01T12:07:54.460Z,33.02
2022-09-01T12:10:27.797Z,32.36
2022-09-01T12:13:07.477Z,32.21
2022-09-01T12:15:46.432Z,32.10
2022-09-01T12:18:28.154Z,32.03
2022-09-01T12:20:58.527Z,31.79
2022-09-01T12:23:29.547Z,31.73
2022-09-01T12:26:05.588Z,31.57
2022-09-01T12:28:35.632Z,31.60
2022-09-01T12:31:07.634Z,31.95
2022-09-01T12:33:37.296Z,31.31
2022-09-01T12:36:17.592Z,31.15
2022-09-01T12:38:44.902Z,31.08
2022-09-01T12:41:31.795Z,31.11
2022-09-01T12:44:31.722Z,31.19
2022-09-01T12:47:04.467Z,31.12
2022-09-01T12:49:37.145Z,30.56
2022-09-01T12:52:26.633Z,30.03
2022-09-01T12:54:58.774Z,30.14
2022-09-01T12:57:48.792Z,30.13
2022-09-01T13:00:25.229Z,30.25
2022-09-01T13:05:41.868Z,30.94
2022-09-01T13:08:15.145Z,31.21
2022-09-01T13:10:54.276Z,31.21
2022-09-01T13:13:24.575Z,31.12
2022-09-01T13:15:55.040Z,30.63
2022-09-01T13:18:24.243Z,30.90
2022-09-01T13:20:53.480Z,30.26
2022-09-01T13:23:21.852Z,31.10
2022-09-01T13:25:50.073Z,31.74
2022-09-01T13:28:18.736Z,31.96
2022-09-01T13:31:28.524Z,31.43
2022-09-01T13:36:46.222Z,31.40
2022-09-01T13:39:15.713Z,31.11
2022-09-01T13:41:43.598Z,30.21
2022-09-01T13:44:11.426Z,30.42
2022-09-01T13:49:44.952Z,30.46
2022-09-01T13:52:14.971Z,30.69
2022-09-01T13:54:44.601Z,30.60
2022-09-01T13:57:12.474Z,30.47
2022-09-01T13:59:42.134Z,30.53
2022-09-01T14:02:10.674Z,30.41
2022-09-01T14:04:38.336Z,29.89
2022-09-01T14:07:06.341Z,30.10
2022-09-01T14:09:33.874Z,29.83
2022-09-01T14:12:01.409Z,30.07
2022-09-01T14:17:18.244Z,29.82
2022-09-01T14:19:51.908Z,30.25
2022-09-01T14:22:19.384Z,30.16
2022-09-01T14:24:46.836Z,29.99
2022-09-01T14:27:14.227Z,30.17
2022-09-01T14:32:11.171Z,29.49
2022-09-01T14:34:39.860Z,29.48
2022-09-01T14:37:07.629Z,29.04
2022-09-01T14:39:34.951Z,29.02
2022-09-01T14:42:02.282Z,29.43
2022-09-01T14:44:29.621Z,29.05
2022-09-01T14:46:57.388Z,28.43
2022-09-01T14:49:33.219Z,28.83
2022-09-01T14:52:17.853Z,28.77
2022-09-01T14:54:45.635Z,28.87
2022-09-01T14:57:36.646Z,28.61
2022-09-01T15:00:02.060Z,28.74
2022-09-01T15:02:29.474Z,28.64
2022-09-01T15:04:57.191Z,28.59
2022-09-01T15:07:24.655Z,28.77
2022-09-01T15:09:54.331Z,28.68
2022-09-01T15:12:22.694Z,29.38
2022-09-01T15:14:53.070Z,29.60
2022-09-01T15:17:20.425Z,29.60
2022-09-01T15:19:47.797Z,29.29
2022-09-01T15:22:16.731Z,28.77
2022-09-01T15:24:45.525Z,28.59
2022-09-01T15:27:13.067Z,28.86
2022-09-01T15:29:48.028Z,29.07
2022-09-01T15:32:27.613Z,29.21
2022-09-01T15:34:56.650Z,29.45
2022-09-01T15:37:24.120Z,28.98
2022-09-01T15:39:51.614Z,29.34
2022-09-01T15:42:19.223Z,29.90
2022-09-01T15:44:47.607Z,28.93
2022-09-01T15:47:16.337Z,28.60
2022-09-01T15:49:43.956Z,28.75
2022-09-01T15:52:11.399Z,28.52
2022-09-01T15:54:40.123Z,28.59
2022-09-01T15:57:09.223Z,28.26
2022-09-01T15:59:41.211Z,28.25
2022-09-01T16:02:10.654Z,28.24
2022-09-01T16:04:39.181Z,28.35
2022-09-01T16:07:06.604Z,28.30
2022-09-01T16:09:34.220Z,28.08
2022-09-01T16:12:01.733Z,27.85
2022-09-01T16:14:31.939Z,27.69
2022-09-01T16:17:06.276Z,27.69
2022-09-01T16:20:05.696Z,27.38
2022-09-01T16:22:50.062Z,27.25
2022-09-01T16:25:35.757Z,27.37
2022-09-01T16:28:36.014Z,27.19
2022-09-01T16:31:14.266Z,27.13
2022-09-01T16:33:56.598Z,26.89
2022-09-01T16:36:27.099Z,27.00
2022-09-01T16:39:16.548Z,27.30
2022-09-01T16:42:13.664Z,27.14
2022-09-01T16:44:54.279Z,27.38
2022-09-01T16:47:42.639Z,26.99
2022-09-01T16:50:37.792Z,27.12
2022-09-01T16:53:11.862Z,27.25
2022-09-01T16:55:46.450Z,27.36
2022-09-01T16:58:13.727Z,27.16
2022-09-01T17:00:59.123Z,26.77
2022-09-01T17:04:02.171Z,27.37
2022-09-01T17:06:34.385Z,26.68
2022-09-01T17:09:29.909Z,26.31
2022-09-01T17:12:28.457Z,26.10
2022-09-01T17:15:05.460Z,26.04
2022-09-01T17:17:53.238Z,25.99
2022-09-01T17:20:28.836Z,25.88
2022-09-01T17:23:00.909Z,25.88
2022-09-01T17:25:33.189Z,25.89
2022-09-01T17:28:17.014Z,25.85
2022-09-01T17:31:14.636Z,25.82
2022-09-01T17:33:57.039Z,25.84
2022-09-01T17:36:46.123Z,25.84
2022-09-01T17:39:17.138Z,25.90
2022-09-01T17:41:54.935Z,25.80
2022-09-01T17:44:25.154Z,25.87
2022-09-01T17:47:12.900Z,25.75
2022-09-01T17:50:21.847Z,25.66
2022-09-01T17:53:33.839Z,25.52
2022-09-01T17:56:14.894Z,24.97
2022-09-01T17:59:17.554Z,24.83
2022-09-01T18:01:55.134Z,24.79
2022-09-01T18:04:42.644Z,24.78
2022-09-01T18:07:31.352Z,24.79
2022-09-01T18:10:02.827Z,24.63
2022-09-01T18:12:35.949Z,24.74
2022-09-01T18:15:13.839Z,24.51
2022-09-01T18:17:47.098Z,24.61
2022-09-01T18:20:24.940Z,24.47
2022-09-01T18:23:12.532Z,24.45
2022-09-01T18:25:51.276Z,24.47
2022-09-01T18:28:19.802Z,24.49
2022-09-01T18:31:07.928Z,24.60
2022-09-01T18:33:47.128Z,24.59
2022-09-01T18:36:26.445Z,24.59
2022-09-01T18:39:09.695Z,24.63
2022-09-01T18:42:04.821Z,24.61
2022-09-01T18:45:06.497Z,24.69
2022-09-01T18:47:37.903Z,24.62
2022-09-01T18:50:18.525Z,24.60
2022-09-01T18:53:12.798Z,24.56
2022-09-01T18:56:06.245Z,24.33
2022-09-01T18:58:53.478Z,23.97
2022-09-01T19:01:33.244Z,23.66
2022-09-01T19:04:15.425Z,23.44
2022-09-01T19:07:14.936Z,23.33
2022-09-01T19:09:46.206Z,23.33
2022-09-01T19:12:42.504Z,23.30
2022-09-01T19:15:15.864Z,23.05
2022-09-01T19:18:10.224Z,22.52
2022-09-01T19:20:53.215Z,22.13
2022-09-01T19:23:20.640Z,21.52
2022-09-01T19:25:50.569Z,20.53
2022-09-01T19:28:45.675Z,20.08
2022-09-01T19:31:19.341Z,20.00
2022-09-01T19:34:05.642Z,19.90
2022-09-01T19:36:42.909Z,19.88
2022-09-01T19:39:16.175Z,19.87
2022-09-01T19:41:52.604Z,19.88
2022-09-01T19:44:29.239Z,19.79
2022-09-01T19:47:08.260Z,19.80
2022-09-01T19:49:51.556Z,19.83
2022-09-01T19:52:32.652Z,19.82
2022-09-01T19:55:17.356Z,19.93
2022-09-01T19:58:09.146Z,19.98
2022-09-01T20:00:56.632Z,19.97
2022-09-01T20:03:38.677Z,19.81
2022-09-01T20:06:08.404Z,19.82
2022-09-01T20:08:42.026Z,19.88
2022-09-01T20:11:29.763Z,19.91
2022-09-01T20:14:07.832Z,19.81
2022-09-01T20:16:42.735Z,19.68
2022-09-01T20:19:32.758Z,19.71
2022-09-01T20:22:14.219Z,19.68
2022-09-01T20:24:41.989Z,19.58
2022-09-01T20:27:35.060Z,19.76
2022-09-01T20:30:17.074Z,19.69
2022-09-01T20:33:20.366Z,19.62
2022-09-01T20:35:56.633Z,19.66
2022-09-01T20:39:13.326Z,19.77
2022-09-01T20:41:49.429Z,19.78
2022-09-01T20:44:33.373Z,19.61
2022-09-01T20:47:00.882Z,19.56
2022-09-01T20:49:28.376Z,19.65
2022-09-01T20:52:07.560Z,19.77
2022-09-01T20:54:46.831Z,19.87
2022-09-01T20:57:43.237Z,19.76
2022-09-01T21:00:15.688Z,19.80
2022-09-01T21:03:18.417Z,19.98
2022-09-01T21:06:30.552Z,19.98
2022-09-01T21:09:15.681Z,20.10
2022-09-01T21:11:50.856Z,20.15
2022-09-01T21:14:37.039Z,20.22
2022-09-01T21:17:20.863Z,20.36
2022-09-01T21:20:14.252Z,20.45
2022-09-01T21:22:41.716Z,20.88
2022-09-01T21:25:11.417Z,20.92
2022-09-01T21:27:45.956Z,20.90
2022-09-01T21:30:16.271Z,21.28
2022-09-01T21:32:44.144Z,21.14
2022-09-01T21:35:14.953Z,21.29
2022-09-01T21:37:42.351Z,21.16
2022-09-01T21:40:11.571Z,21.24
2022-09-01T21:42:40.795Z,21.26
2022-09-01T21:45:12.328Z,21.02
2022-09-01T21:47:41.148Z,21.32
2022-09-01T21:50:09.716Z,21.28
2022-09-01T21:52:36.991Z,21.37
2022-09-01T21:55:05.541Z,21.27
2022-09-01T21:57:32.814Z,21.23
2022-09-01T22:00:14.493Z,21.33
2022-09-01T22:02:46.530Z,21.20
2022-09-01T22:05:14.598Z,21.29
2022-09-01T22:07:45.621Z,21.23
2022-09-01T22:10:18.123Z,21.24
2022-09-01T22:12:47.484Z,21.29
2022-09-01T22:15:19.406Z,21.25
2022-09-01T22:17:47.619Z,21.34
2022-09-01T22:20:19.356Z,21.28
2022-09-01T22:22:47.427Z,21.30
2022-09-01T22:25:19.595Z,21.38
2022-09-01T22:27:47.428Z,21.33
2022-09-01T22:30:15.748Z,21.30
2022-09-01T22:32:45.636Z,21.24
2022-09-01T22:35:16.392Z,21.28
2022-09-01T22:37:43.988Z,21.36
2022-09-01T22:40:12.799Z,21.31
2022-09-01T22:42:40.308Z,21.33
2022-09-01T22:45:10.077Z,21.22
2022-09-01T22:47:39.678Z,21.39
2022-09-01T22:50:11.288Z,21.29
2022-09-01T22:52:51.918Z,21.22
2022-09-01T22:55:19.927Z,21.23
2022-09-01T22:57:47.413Z,21.18
2022-09-01T23:00:15.168Z,21.09
2022-09-01T23:02:42.522Z,21.13
2022-09-01T23:05:10.207Z,21.06
2022-09-01T23:07:39.586Z,21.06
2022-09-01T23:10:09.038Z,21.13
2022-09-01T23:12:36.362Z,21.04
2022-09-01T23:15:04.633Z,21.05
2022-09-01T23:17:33.704Z,21.00
2022-09-01T23:20:02.549Z,20.95
2022-09-01T23:22:31.437Z,20.94
2022-09-01T23:25:00.007Z,20.95
2022-09-01T23:27:27.309Z,21.00
2022-09-01T23:29:55.397Z,21.00
2022-09-01T23:32:22.943Z,21.07
2022-09-01T23:34:52.348Z,21.15
2022-09-01T23:37:20.121Z,21.08
2022-09-01T23:39:47.473Z,20.91
2022-09-01T23:42:14.775Z,20.75
2022-09-01T23:44:43.169Z,20.75
2022-09-01T23:47:10.780Z,20.81
2022-09-01T23:49:41.924Z,20.84
2022-09-01T23:52:11.694Z,20.78
2022-09-01T23:54:39.124Z,20.81
2022-09-01T23:57:06.685Z,20.84
2022-09-01T23:59:34.055Z,20.89
